sensor_id;sensor_type;location;lat;lon;timestamp;pressure;altitude;pressure_sealevel;temperature;humidity
33781;BME280;20097;50.832;19.100;2023-05-21T00:01:24;98891.75;;;13.41;100.00
33781;BME280;20097;50.832;19.100;2023-05-21T00:06:28;98893.19;;;13.44;100.00
33781;BME280;20097;50.832;19.100;2023-05-21T00:11:35;98887.28;;;13.42;100.00
33781;BME280;20097;50.832;19.100;2023-05-21T00:16:39;98881.16;;;13.35;100.00
33781;BME280;20097;50.832;19.100;2023-05-21T00:21:44;98887.34;;;13.34;100.00
33781;BME280;20097;50.832;19.100;2023-05-21T00:26:49;98889.34;;;13.32;100.00
33781;BME280;20097;50.832;19.100;2023-05-21T00:31:53;98879.84;;;13.31;100.00
33781;BME280;20097;50.832;19.100;2023-05-21T00:36:58;98878.53;;;13.35;100.00
33781;BME280;20097;50.832;19.100;2023-05-21T00:42:05;98875.34;;;13.39;100.00
33781;BME280;20097;50.832;19.100;2023-05-21T00:47:12;98877.81;;;13.41;100.00
33781;BME280;20097;50.832;19.100;2023-05-21T00:52:16;98876.78;;;13.42;100.00
33781;BME280;20097;50.832;19.100;2023-05-21T00:57:24;98876.78;;;13.42;100.00
33781;BME280;20097;50.832;19.100;2023-05-21T01:02:29;98871.56;;;13.42;100.00
33781;BME280;20097;50.832;19.100;2023-05-21T01:07:38;98861.97;;;13.34;100.00
33781;BME280;20097;50.832;19.100;2023-05-21T01:12:45;98859.53;;;13.33;100.00
33781;BME280;20097;50.832;19.100;2023-05-21T01:17:50;98852.63;;;13.32;100.00
33781;BME280;20097;50.832;19.100;2023-05-21T01:22:57;98843.69;;;13.26;100.00
33781;BME280;20097;50.832;19.100;2023-05-21T01:28:01;98842.06;;;13.25;100.00
33781;BME280;20097;50.832;19.100;2023-05-21T01:33:08;98843.69;;;13.26;100.00
33781;BME280;20097;50.832;19.100;2023-05-21T01:38:22;98838.06;;;13.29;100.00
33781;BME280;20097;50.832;19.100;2023-05-21T01:43:27;98836.56;;;13.35;100.00
33781;BME280;20097;50.832;19.100;2023-05-21T01:48:32;98827.69;;;13.36;100.00
33781;BME280;20097;50.832;19.100;2023-05-21T01:53:39;98820.84;;;13.35;100.00
33781;BME280;20097;50.832;19.100;2023-05-21T01:58:43;98816.75;;;13.32;100.00
33781;BME280;20097;50.832;19.100;2023-05-21T02:03:48;98814.31;;;13.31;100.00
33781;BME280;20097;50.832;19.100;2023-05-21T02:08:54;98817.28;;;13.28;100.00
33781;BME280;20097;50.832;19.100;2023-05-21T02:13:58;98808.94;;;13.24;100.00
33781;BME280;20097;50.832;19.100;2023-05-21T02:19:02;98808.50;;;13.21;100.00
33781;BME280;20097;50.832;19.100;2023-05-21T02:24:08;98806.88;;;13.20;100.00
33781;BME280;20097;50.832;19.100;2023-05-21T02:29:12;98813.28;;;13.17;100.00
33781;BME280;20097;50.832;19.100;2023-05-21T02:34:17;98809.22;;;13.15;100.00
33781;BME280;20097;50.832;19.100;2023-05-21T02:39:23;98807.13;;;13.10;100.00
33781;BME280;20097;50.832;19.100;2023-05-21T02:44:29;98807.91;;;13.11;100.00
33781;BME280;20097;50.832;19.100;2023-05-21T02:49:33;98804.69;;;13.09;100.00
33781;BME280;20097;50.832;19.100;2023-05-21T02:54:38;98797.00;;;13.07;100.00
33781;BME280;20097;50.832;19.100;2023-05-21T02:59:43;98786.06;;;13.04;100.00
33781;BME280;20097;50.832;19.100;2023-05-21T03:04:47;98788.66;;;13.04;100.00
33781;BME280;20097;50.832;19.100;2023-05-21T03:09:54;98788.03;;;13.02;100.00
33781;BME280;20097;50.832;19.100;2023-05-21T03:14:59;98790.69;;;12.94;100.00
33781;BME280;20097;50.832;19.100;2023-05-21T03:20:06;98791.50;;;12.94;100.00
33781;BME280;20097;50.832;19.100;2023-05-21T03:25:13;98783.13;;;12.99;100.00
33781;BME280;20097;50.832;19.100;2023-05-21T03:30:18;98792.25;;;13.03;100.00
33781;BME280;20097;50.832;19.100;2023-05-21T03:35:45;98790.28;;;13.05;100.00
33781;BME280;20097;50.832;19.100;2023-05-21T03:40:52;98794.56;;;13.06;100.00
33781;BME280;20097;50.832;19.100;2023-05-21T03:45:58;98793.19;;;13.10;100.00
33781;BME280;20097;50.832;19.100;2023-05-21T03:51:20;98790.56;;;13.10;100.00
33781;BME280;20097;50.832;19.100;2023-05-21T03:56:26;98796.09;;;13.15;100.00
33781;BME280;20097;50.832;19.100;2023-05-21T04:01:30;98800.44;;;13.22;100.00
33781;BME280;20097;50.832;19.100;2023-05-21T04:06:36;98796.97;;;13.30;100.00
33781;BME280;20097;50.832;19.100;2023-05-21T04:11:41;98789.38;;;13.35;100.00
33781;BME280;20097;50.832;19.100;2023-05-21T04:16:45;98793.16;;;13.47;100.00
33781;BME280;20097;50.832;19.100;2023-05-21T04:21:50;98786.13;;;13.62;100.00
33781;BME280;20097;50.832;19.100;2023-05-21T04:26:56;98790.19;;;13.79;100.00
33781;BME280;20097;50.832;19.100;2023-05-21T04:32:05;98789.81;;;13.97;100.00
33781;BME280;20097;50.832;19.100;2023-05-21T04:37:09;98784.56;;;14.11;100.00
33781;BME280;20097;50.832;19.100;2023-05-21T04:42:15;98790.59;;;14.26;100.00
33781;BME280;20097;50.832;19.100;2023-05-21T04:47:21;98784.72;;;14.39;100.00
33781;BME280;20097;50.832;19.100;2023-05-21T04:52:25;98787.28;;;14.53;100.00
33781;BME280;20097;50.832;19.100;2023-05-21T04:57:31;98793.91;;;14.70;100.00
33781;BME280;20097;50.832;19.100;2023-05-21T05:02:35;98793.31;;;14.89;100.00
33781;BME280;20097;50.832;19.100;2023-05-21T05:07:40;98791.63;;;15.09;100.00
33781;BME280;20097;50.832;19.100;2023-05-21T05:12:45;98785.56;;;15.30;100.00
33781;BME280;20097;50.832;19.100;2023-05-21T05:17:50;98781.22;;;15.44;100.00
33781;BME280;20097;50.832;19.100;2023-05-21T05:22:54;98784.16;;;15.62;100.00
33781;BME280;20097;50.832;19.100;2023-05-21T05:28:00;98791.75;;;15.78;100.00
33781;BME280;20097;50.832;19.100;2023-05-21T05:33:05;98788.63;;;16.02;100.00
33781;BME280;20097;50.832;19.100;2023-05-21T05:38:10;98781.59;;;16.15;100.00
33781;BME280;20097;50.832;19.100;2023-05-21T05:43:16;98772.41;;;16.46;100.00
33781;BME280;20097;50.832;19.100;2023-05-21T05:48:21;98781.34;;;16.64;100.00
33781;BME280;20097;50.832;19.100;2023-05-21T05:53:25;98770.22;;;16.88;100.00
33781;BME280;20097;50.832;19.100;2023-05-21T05:58:32;98773.47;;;17.16;99.57
33781;BME280;20097;50.832;19.100;2023-05-21T06:03:46;98778.34;;;17.45;97.00
33781;BME280;20097;50.832;19.100;2023-05-21T06:08:52;98769.00;;;17.62;94.25
33781;BME280;20097;50.832;19.100;2023-05-21T06:13:59;98771.56;;;17.89;95.79
33781;BME280;20097;50.832;19.100;2023-05-21T06:19:06;98771.75;;;17.94;92.88
33781;BME280;20097;50.832;19.100;2023-05-21T06:24:10;98777.53;;;18.22;96.94
33781;BME280;20097;50.832;19.100;2023-05-21T06:29:16;98774.75;;;18.54;90.59
33781;BME280;20097;50.832;19.100;2023-05-21T06:34:22;98778.03;;;18.81;88.63
33781;BME280;20097;50.832;19.100;2023-05-21T06:39:28;98773.44;;;19.01;87.27
33781;BME280;20097;50.832;19.100;2023-05-21T06:44:33;98776.25;;;19.31;86.17
33781;BME280;20097;50.832;19.100;2023-05-21T06:50:04;98783.00;;;19.69;85.93
33781;BME280;20097;50.832;19.100;2023-05-21T06:55:09;98783.88;;;19.99;82.56
33781;BME280;20097;50.832;19.100;2023-05-21T07:00:35;98781.56;;;20.27;81.12
33781;BME280;20097;50.832;19.100;2023-05-21T07:05:41;98782.97;;;20.41;78.74
33781;BME280;20097;50.832;19.100;2023-05-21T07:10:45;98772.19;;;20.55;79.67
33781;BME280;20097;50.832;19.100;2023-05-21T07:15:51;98777.31;;;20.68;77.55
33781;BME280;20097;50.832;19.100;2023-05-21T07:20:55;98777.91;;;20.40;77.77
33781;BME280;20097;50.832;19.100;2023-05-21T07:26:01;98769.03;;;20.46;75.88
33781;BME280;20097;50.832;19.100;2023-05-21T07:31:09;98771.28;;;20.61;79.86
33781;BME280;20097;50.832;19.100;2023-05-21T07:36:23;98767.75;;;20.67;80.30
33781;BME280;20097;50.832;19.100;2023-05-21T07:41:28;98760.47;;;20.74;78.44
33781;BME280;20097;50.832;19.100;2023-05-21T07:46:35;98756.91;;;20.68;79.11
33781;BME280;20097;50.832;19.100;2023-05-21T07:51:40;98761.06;;;20.76;77.76
33781;BME280;20097;50.832;19.100;2023-05-21T07:56:45;98762.13;;;20.75;72.46
33781;BME280;20097;50.832;19.100;2023-05-21T08:02:07;98757.19;;;20.78;71.55
33781;BME280;20097;50.832;19.100;2023-05-21T08:07:11;98748.63;;;20.76;70.75
33781;BME280;20097;50.832;19.100;2023-05-21T08:12:18;98759.75;;;20.96;71.84
33781;BME280;20097;50.832;19.100;2023-05-21T08:17:24;98755.06;;;21.10;69.08
33781;BME280;20097;50.832;19.100;2023-05-21T08:22:30;98756.00;;;21.27;70.68
33781;BME280;20097;50.832;19.100;2023-05-21T08:27:34;98755.78;;;21.40;66.64
33781;BME280;20097;50.832;19.100;2023-05-21T08:32:41;98754.38;;;21.49;63.99
33781;BME280;20097;50.832;19.100;2023-05-21T08:37:47;98749.41;;;21.64;64.87
33781;BME280;20097;50.832;19.100;2023-05-21T08:42:59;98741.78;;;21.79;66.57
33781;BME280;20097;50.832;19.100;2023-05-21T08:48:15;98752.72;;;21.94;63.15
33781;BME280;20097;50.832;19.100;2023-05-21T08:53:20;98757.41;;;22.04;61.17
33781;BME280;20097;50.832;19.100;2023-05-21T08:58:31;98752.66;;;22.17;61.73
33781;BME280;20097;50.832;19.100;2023-05-21T09:03:39;98740.47;;;22.33;61.88
33781;BME280;20097;50.832;19.100;2023-05-21T09:08:44;98753.13;;;22.54;60.28
33781;BME280;20097;50.832;19.100;2023-05-21T09:14:03;98760.06;;;22.43;56.65
33781;BME280;20097;50.832;19.100;2023-05-21T09:20:06;98760.47;;;22.63;55.82
33781;BME280;20097;50.832;19.100;2023-05-21T09:25:15;98762.72;;;22.55;53.66
33781;BME280;20097;50.832;19.100;2023-05-21T09:30:19;98747.97;;;22.64;54.82
33781;BME280;20097;50.832;19.100;2023-05-21T09:35:31;98750.81;;;22.90;53.63
33781;BME280;20097;50.832;19.100;2023-05-21T09:40:43;98761.66;;;23.00;52.98
33781;BME280;20097;50.832;19.100;2023-05-21T09:45:49;98763.50;;;23.17;50.92
33781;BME280;20097;50.832;19.100;2023-05-21T09:51:07;98747.72;;;23.27;52.71
33781;BME280;20097;50.832;19.100;2023-05-21T09:56:11;98742.88;;;23.40;52.81
33781;BME280;20097;50.832;19.100;2023-05-21T10:01:15;98738.06;;;23.26;52.66
33781;BME280;20097;50.832;19.100;2023-05-21T10:06:21;98749.28;;;23.44;51.57
33781;BME280;20097;50.832;19.100;2023-05-21T10:11:29;98733.91;;;23.68;52.10
33781;BME280;20097;50.832;19.100;2023-05-21T10:16:34;98730.25;;;23.74;51.93
33781;BME280;20097;50.832;19.100;2023-05-21T10:21:40;98724.78;;;24.02;53.37
33781;BME280;20097;50.832;19.100;2023-05-21T10:26:45;98725.38;;;23.87;50.60
33781;BME280;20097;50.832;19.100;2023-05-21T10:31:50;98729.31;;;23.85;50.61
33781;BME280;20097;50.832;19.100;2023-05-21T10:36:56;98719.44;;;24.02;51.61
33781;BME280;20097;50.832;19.100;2023-05-21T10:42:12;98721.28;;;24.23;48.72
33781;BME280;20097;50.832;19.100;2023-05-21T10:52:54;98706.81;;;24.72;51.16
33781;BME280;20097;50.832;19.100;2023-05-21T10:58:17;98695.66;;;25.12;52.14
33781;BME280;20097;50.832;19.100;2023-05-21T11:03:24;98701.63;;;25.24;48.99
33781;BME280;20097;50.832;19.100;2023-05-21T11:08:31;98703.03;;;25.00;48.48
33781;BME280;20097;50.832;19.100;2023-05-21T11:13:44;98699.41;;;25.52;47.91
33781;BME280;20097;50.832;19.100;2023-05-21T11:18:59;98697.16;;;25.34;47.07
33781;BME280;20097;50.832;19.100;2023-05-21T11:24:06;98698.50;;;25.89;47.35
33781;BME280;20097;50.832;19.100;2023-05-21T11:29:13;98692.94;;;25.38;46.64
33781;BME280;20097;50.832;19.100;2023-05-21T11:34:18;98692.78;;;25.65;46.54
33781;BME280;20097;50.832;19.100;2023-05-21T11:39:24;98706.03;;;25.97;45.28
33781;BME280;20097;50.832;19.100;2023-05-21T11:44:38;98700.25;;;26.40;45.36
33781;BME280;20097;50.832;19.100;2023-05-21T11:49:43;98692.72;;;26.12;44.79
33781;BME280;20097;50.832;19.100;2023-05-21T11:54:50;98689.59;;;26.95;45.04
33781;BME280;20097;50.832;19.100;2023-05-21T11:59:58;98685.06;;;27.11;46.49
33781;BME280;20097;50.832;19.100;2023-05-21T12:05:06;98686.59;;;26.21;45.37
33781;BME280;20097;50.832;19.100;2023-05-21T12:10:13;98677.50;;;26.22;45.80
33781;BME280;20097;50.832;19.100;2023-05-21T12:15:18;98666.06;;;26.72;47.55
33781;BME280;20097;50.832;19.100;2023-05-21T12:20:24;98658.25;;;27.06;47.30
33781;BME280;20097;50.832;19.100;2023-05-21T12:25:32;98674.06;;;27.17;44.76
33781;BME280;20097;50.832;19.100;2023-05-21T12:30:36;98676.72;;;26.47;45.22
33781;BME280;20097;50.832;19.100;2023-05-21T12:35:40;98668.72;;;26.77;46.00
33781;BME280;20097;50.832;19.100;2023-05-21T12:40:50;98664.38;;;27.21;45.46
33781;BME280;20097;50.832;19.100;2023-05-21T12:45:54;98680.75;;;27.35;43.85
33781;BME280;20097;50.832;19.100;2023-05-21T12:50:58;98662.78;;;27.30;43.80
33781;BME280;20097;50.832;19.100;2023-05-21T12:56:08;98662.28;;;27.97;43.67
33781;BME280;20097;50.832;19.100;2023-05-21T13:01:13;98667.06;;;27.41;42.50
33781;BME280;20097;50.832;19.100;2023-05-21T13:06:17;98663.91;;;26.94;42.52
33781;BME280;20097;50.832;19.100;2023-05-21T13:11:23;98662.25;;;27.33;43.51
33781;BME280;20097;50.832;19.100;2023-05-21T13:16:27;98666.34;;;27.89;42.27
33781;BME280;20097;50.832;19.100;2023-05-21T13:21:31;98661.91;;;27.60;42.01
33781;BME280;20097;50.832;19.100;2023-05-21T13:26:37;98664.03;;;27.63;40.38
33781;BME280;20097;50.832;19.100;2023-05-21T13:31:41;98662.84;;;28.38;39.55
33781;BME280;20097;50.832;19.100;2023-05-21T13:36:46;98662.84;;;28.38;39.63
33781;BME280;20097;50.832;19.100;2023-05-21T13:41:52;98666.00;;;28.06;38.84
33781;BME280;20097;50.832;19.100;2023-05-21T13:46:56;98656.97;;;28.31;38.68
33781;BME280;20097;50.832;19.100;2023-05-21T13:52:01;98652.63;;;27.27;40.52
33781;BME280;20097;50.832;19.100;2023-05-21T13:57:07;98647.50;;;27.26;41.22
33781;BME280;20097;50.832;19.100;2023-05-21T14:02:12;98634.38;;;27.29;41.47
33781;BME280;20097;50.832;19.100;2023-05-21T14:07:16;98622.94;;;26.78;43.11
33781;BME280;20097;50.832;19.100;2023-05-21T14:12:22;98624.81;;;26.83;43.95
33781;BME280;20097;50.832;19.100;2023-05-21T14:17:26;98611.91;;;26.40;44.76
33781;BME280;20097;50.832;19.100;2023-05-21T14:22:30;98615.41;;;26.60;43.47
33781;BME280;20097;50.832;19.100;2023-05-21T14:27:35;98629.81;;;27.98;41.80
33781;BME280;20097;50.832;19.100;2023-05-21T14:32:40;98623.78;;;28.16;40.69
33781;BME280;20097;50.832;19.100;2023-05-21T14:37:44;98622.66;;;27.79;41.78
33781;BME280;20097;50.832;19.100;2023-05-21T14:42:50;98618.50;;;28.40;40.70
33781;BME280;20097;50.832;19.100;2023-05-21T14:47:54;98614.78;;;27.39;41.98
33781;BME280;20097;50.832;19.100;2023-05-21T14:53:02;98604.69;;;26.35;42.22
33781;BME280;20097;50.832;19.100;2023-05-21T14:58:07;98596.75;;;27.49;42.29
33781;BME280;20097;50.832;19.100;2023-05-21T15:03:11;98596.06;;;27.82;41.69
33781;BME280;20097;50.832;19.100;2023-05-21T15:08:15;98608.34;;;27.35;42.71
33781;BME280;20097;50.832;19.100;2023-05-21T15:13:20;98595.84;;;26.05;44.31
33781;BME280;20097;50.832;19.100;2023-05-21T15:18:28;98597.34;;;25.14;46.07
33781;BME280;20097;50.832;19.100;2023-05-21T15:23:32;98599.59;;;26.64;45.72
33781;BME280;20097;50.832;19.100;2023-05-21T15:28:37;98614.25;;;27.27;43.90
33781;BME280;20097;50.832;19.100;2023-05-21T15:33:42;98618.63;;;27.76;42.92
33781;BME280;20097;50.832;19.100;2023-05-21T15:38:45;98610.06;;;27.74;42.49
33781;BME280;20097;50.832;19.100;2023-05-21T15:43:51;98609.34;;;27.49;42.97
33781;BME280;20097;50.832;19.100;2023-05-21T15:48:55;98598.28;;;26.16;44.97
33781;BME280;20097;50.832;19.100;2023-05-21T15:53:59;98584.78;;;25.14;46.50
33781;BME280;20097;50.832;19.100;2023-05-21T15:59:06;98575.31;;;24.92;48.66
33781;BME280;20097;50.832;19.100;2023-05-21T16:04:10;98571.22;;;24.74;48.44
33781;BME280;20097;50.832;19.100;2023-05-21T16:09:15;98567.19;;;24.40;47.92
33781;BME280;20097;50.832;19.100;2023-05-21T16:14:20;98562.38;;;24.37;50.34
33781;BME280;20097;50.832;19.100;2023-05-21T16:19:25;98560.66;;;24.21;50.37
33781;BME280;20097;50.832;19.100;2023-05-21T16:24:30;98552.97;;;23.98;51.89
33781;BME280;20097;50.832;19.100;2023-05-21T16:29:35;98557.88;;;23.84;51.44
33781;BME280;20097;50.832;19.100;2023-05-21T16:34:42;98567.28;;;23.65;52.25
33781;BME280;20097;50.832;19.100;2023-05-21T16:39:46;98567.28;;;23.44;52.28
33781;BME280;20097;50.832;19.100;2023-05-21T16:44:52;98552.88;;;23.40;52.94
33781;BME280;20097;50.832;19.100;2023-05-21T16:49:56;98567.22;;;23.17;54.22
33781;BME280;20097;50.832;19.100;2023-05-21T16:55:01;98558.25;;;22.85;52.20
33781;BME280;20097;50.832;19.100;2023-05-21T17:00:07;98561.84;;;22.74;52.45
33781;BME280;20097;50.832;19.100;2023-05-21T17:05:11;98567.66;;;22.54;53.92
33781;BME280;20097;50.832;19.100;2023-05-21T17:10:15;98559.28;;;22.29;54.09
33781;BME280;20097;50.832;19.100;2023-05-21T17:15:21;98560.38;;;22.17;54.72
33781;BME280;20097;50.832;19.100;2023-05-21T17:20:25;98560.53;;;21.94;55.79
33781;BME280;20097;50.832;19.100;2023-05-21T17:25:29;98557.78;;;21.89;55.91
33781;BME280;20097;50.832;19.100;2023-05-21T17:30:37;98556.91;;;21.71;55.79
33781;BME280;20097;50.832;19.100;2023-05-21T17:35:41;98547.13;;;21.60;57.75
33781;BME280;20097;50.832;19.100;2023-05-21T17:40:45;98552.63;;;21.42;58.45
33781;BME280;20097;50.832;19.100;2023-05-21T17:45:52;98563.69;;;21.11;58.39
33781;BME280;20097;50.832;19.100;2023-05-21T17:50:56;98551.91;;;20.96;60.58
33781;BME280;20097;50.832;19.100;2023-05-21T17:56:00;98546.63;;;20.73;62.64
33781;BME280;20097;50.832;19.100;2023-05-21T18:01:06;98551.03;;;20.56;63.30
33781;BME280;20097;50.832;19.100;2023-05-21T18:06:12;98563.09;;;20.28;64.28
33781;BME280;20097;50.832;19.100;2023-05-21T18:11:16;98571.47;;;20.14;66.04
33781;BME280;20097;50.832;19.100;2023-05-21T18:16:21;98565.53;;;19.89;67.54
33781;BME280;20097;50.832;19.100;2023-05-21T18:21:25;98575.25;;;19.65;68.32
33781;BME280;20097;50.832;19.100;2023-05-21T18:26:29;98574.13;;;19.43;69.27
33781;BME280;20097;50.832;19.100;2023-05-21T18:31:35;98582.34;;;19.17;72.64
33781;BME280;20097;50.832;19.100;2023-05-21T18:36:39;98587.25;;;18.95;74.64
33781;BME280;20097;50.832;19.100;2023-05-21T18:41:43;98588.66;;;18.80;75.00
33781;BME280;20097;50.832;19.100;2023-05-21T18:46:49;98587.13;;;18.66;74.92
33781;BME280;20097;50.832;19.100;2023-05-21T18:51:54;98594.41;;;18.46;77.47
33781;BME280;20097;50.832;19.100;2023-05-21T18:57:00;98594.09;;;18.36;75.23
33781;BME280;20097;50.832;19.100;2023-05-21T19:02:06;98594.41;;;18.21;77.16
33781;BME280;20097;50.832;19.100;2023-05-21T19:07:12;98599.13;;;18.13;78.01
33781;BME280;20097;50.832;19.100;2023-05-21T19:12:17;98605.31;;;18.00;80.18
33781;BME280;20097;50.832;19.100;2023-05-21T19:17:22;98617.56;;;17.88;78.04
33781;BME280;20097;50.832;19.100;2023-05-21T19:22:27;98608.72;;;17.69;80.49
33781;BME280;20097;50.832;19.100;2023-05-21T19:27:31;98618.94;;;17.59;81.10
33781;BME280;20097;50.832;19.100;2023-05-21T19:32:37;98626.50;;;17.43;82.21
33781;BME280;20097;50.832;19.100;2023-05-21T19:37:41;98613.34;;;17.30;81.41
33781;BME280;20097;50.832;19.100;2023-05-21T19:42:45;98618.69;;;17.10;85.41
33781;BME280;20097;50.832;19.100;2023-05-21T19:47:51;98620.72;;;17.08;83.98
33781;BME280;20097;50.832;19.100;2023-05-21T19:52:55;98612.03;;;16.88;86.42
33781;BME280;20097;50.832;19.100;2023-05-21T19:58:00;98602.53;;;16.74;89.57
33781;BME280;20097;50.832;19.100;2023-05-21T20:03:05;98601.50;;;16.62;91.25
33781;BME280;20097;50.832;19.100;2023-05-21T20:08:10;98591.78;;;16.56;90.79
33781;BME280;20097;50.832;19.100;2023-05-21T20:13:14;98591.16;;;16.41;93.37
33781;BME280;20097;50.832;19.100;2023-05-21T20:18:19;98590.16;;;16.35;91.83
33781;BME280;20097;50.832;19.100;2023-05-21T20:23:23;98591.97;;;16.28;93.18
33781;BME280;20097;50.832;19.100;2023-05-21T20:28:27;98599.66;;;16.17;93.68
33781;BME280;20097;50.832;19.100;2023-05-21T20:33:34;98604.91;;;15.97;98.23
33781;BME280;20097;50.832;19.100;2023-05-21T20:38:41;98610.56;;;15.94;95.88
33781;BME280;20097;50.832;19.100;2023-05-21T20:43:47;98602.44;;;15.83;95.66
33781;BME280;20097;50.832;19.100;2023-05-21T20:48:53;98607.66;;;15.70;97.21
33781;BME280;20097;50.832;19.100;2023-05-21T20:53:57;98612.28;;;15.61;96.87
33781;BME280;20097;50.832;19.100;2023-05-21T20:59:01;98617.94;;;15.52;98.03
33781;BME280;20097;50.832;19.100;2023-05-21T21:04:06;98613.25;;;15.41;99.30
33781;BME280;20097;50.832;19.100;2023-05-21T21:09:10;98624.09;;;15.31;100.00
33781;BME280;20097;50.832;19.100;2023-05-21T21:14:14;98624.88;;;15.25;99.11
33781;BME280;20097;50.832;19.100;2023-05-21T21:19:19;98619.59;;;15.19;99.72
33781;BME280;20097;50.832;19.100;2023-05-21T21:24:23;98628.81;;;15.08;100.00
33781;BME280;20097;50.832;19.100;2023-05-21T21:29:28;98627.22;;;15.07;99.75
33781;BME280;20097;50.832;19.100;2023-05-21T21:34:33;98621.06;;;14.93;100.00
33781;BME280;20097;50.832;19.100;2023-05-21T21:39:37;98622.41;;;14.83;100.00
33781;BME280;20097;50.832;19.100;2023-05-21T21:44:41;98615.28;;;14.77;100.00
33781;BME280;20097;50.832;19.100;2023-05-21T21:49:47;98615.63;;;14.67;100.00
33781;BME280;20097;50.832;19.100;2023-05-21T21:54:52;98614.00;;;14.66;100.00
33781;BME280;20097;50.832;19.100;2023-05-21T21:59:56;98608.06;;;14.58;100.00
33781;BME280;20097;50.832;19.100;2023-05-21T22:05:02;98606.66;;;14.55;100.00
33781;BME280;20097;50.832;19.100;2023-05-21T22:10:07;98604.81;;;14.56;99.31
33781;BME280;20097;50.832;19.100;2023-05-21T22:15:16;98596.66;;;14.44;100.00
33781;BME280;20097;50.832;19.100;2023-05-21T22:20:22;98602.88;;;14.37;100.00
33781;BME280;20097;50.832;19.100;2023-05-21T22:25:27;98601.00;;;14.31;100.00
33781;BME280;20097;50.832;19.100;2023-05-21T22:30:32;98604.00;;;14.28;100.00
33781;BME280;20097;50.832;19.100;2023-05-21T22:35:37;98607.53;;;14.20;100.00
33781;BME280;20097;50.832;19.100;2023-05-21T22:40:41;98612.53;;;14.15;100.00
33781;BME280;20097;50.832;19.100;2023-05-21T22:45:45;98607.53;;;13.99;100.00
33781;BME280;20097;50.832;19.100;2023-05-21T22:50:51;98599.22;;;13.96;100.00
33781;BME280;20097;50.832;19.100;2023-05-21T22:55:56;98612.16;;;13.97;99.34
33781;BME280;20097;50.832;19.100;2023-05-21T23:01:00;98598.97;;;13.91;100.00
33781;BME280;20097;50.832;19.100;2023-05-21T23:06:06;98604.34;;;13.82;100.00
33781;BME280;20097;50.832;19.100;2023-05-21T23:11:10;98605.09;;;13.76;100.00
33781;BME280;20097;50.832;19.100;2023-05-21T23:16:14;98600.53;;;13.64;100.00
33781;BME280;20097;50.832;19.100;2023-05-21T23:21:20;98596.25;;;13.63;100.00
33781;BME280;20097;50.832;19.100;2023-05-21T23:26:24;98593.81;;;13.61;100.00
33781;BME280;20097;50.832;19.100;2023-05-21T23:31:28;98592.41;;;13.59;100.00
33781;BME280;20097;50.832;19.100;2023-05-21T23:36:34;98593.56;;;13.56;100.00
33781;BME280;20097;50.832;19.100;2023-05-21T23:41:38;98589.88;;;13.51;100.00
33781;BME280;20097;50.832;19.100;2023-05-21T23:46:42;98590.25;;;13.48;100.00
33781;BME280;20097;50.832;19.100;2023-05-21T23:51:47;98580.84;;;13.39;100.00
33781;BME280;20097;50.832;19.100;2023-05-21T23:56:52;98581.59;;;13.33;100.00
